Time;durP1;ratioP1;P1;durP2;ratioP2;P2;SDS_P1;SDS_P2;PMS_P1;PMS_P2;Temp;Humidity;BMP_temperature;BMP_pressure;BME280_temperature;BME280_humidity;BME280_pressure;Samples;Min_cycle;Max_cycle;Signal;HPM_P1;HPM_P2
2021/12/02 00:02:15;;;;;;;23.07;13.43;;;;;;;2.31;79.53;96678.64;1692125;85;21076;-74
2021/12/02 00:04:43;;;;;;;24.10;13.75;;;;;;;2.34;79.61;96671.63;1692055;83;20979;-73
2021/12/02 00:07:10;;;;;;;23.57;13.25;;;;;;;2.36;79.77;96669.84;1691505;85;21401;-74
2021/12/02 00:09:38;;;;;;;26.65;14.18;;;;;;;2.40;79.57;96673.72;1691785;83;21003;-74
2021/12/02 00:12:07;;;;;;;24.37;13.38;;;;;;;2.41;80.10;96667.12;1691049;85;21004;-74
2021/12/02 00:14:45;;;;;;;24.07;13.75;;;;;;;2.46;79.54;96652.67;1691515;85;20969;-74
2021/12/02 00:17:28;;;;;;;22.32;13.22;;;;;;;2.50;79.99;96660.88;1689963;85;21000;-74
2021/12/02 00:22:45;;;;;;;;;;;;;;;2.52;79.33;96662.17;1694496;85;21461;-74
2021/12/02 00:25:13;;;;;;;23.55;12.37;;;;;;;2.54;79.16;96661.25;1690055;85;20115;-74
2021/12/02 00:27:41;;;;;;;20.10;12.10;;;;;;;2.56;80.33;96659.88;1691843;84;21397;-74
2021/12/02 00:30:08;;;;;;;23.90;11.85;;;;;;;2.58;79.96;96669.89;1692138;85;20980;-74
2021/12/02 00:32:38;;;;;;;22.42;12.10;;;;;;;2.61;79.71;96660.22;1692063;85;20992;-74
2021/12/02 00:35:06;;;;;;;21.55;11.68;;;;;;;2.65;79.49;96666.25;1691724;85;21084;-74
2021/12/02 00:37:33;;;;;;;19.80;11.88;;;;;;;2.64;80.00;96664.53;1691886;85;21502;-75
2021/12/02 00:40:00;;;;;;;20.15;10.68;;;;;;;2.69;79.90;96667.92;1691876;85;21008;-74
2021/12/02 00:42:27;;;;;;;19.32;9.93;;;;;;;2.71;79.45;96677.05;1691744;85;21031;-74
2021/12/02 00:44:57;;;;;;;19.10;11.08;;;;;;;2.72;79.75;96657.84;1691390;85;21067;-74
2021/12/02 00:47:24;;;;;;;18.65;11.22;;;;;;;2.76;79.56;96652.53;1681092;84;21086;-74
2021/12/02 00:49:50;;;;;;;19.07;10.72;;;;;;;2.74;79.62;96638.59;1709215;84;21429;-74
2021/12/02 00:52:19;;;;;;;18.62;10.03;;;;;;;2.76;79.44;96640.76;1709430;84;21020;-74
2021/12/02 00:54:47;;;;;;;21.05;10.93;;;;;;;2.77;79.52;96641.59;1709291;84;21403;-74
2021/12/02 00:57:14;;;;;;;15.35;9.65;;;;;;;2.80;79.28;96636.31;1709366;84;20989;-74
2021/12/02 00:59:41;;;;;;;17.95;10.08;;;;;;;2.83;79.48;96642.78;1709181;84;20984;-73
2021/12/02 01:02:10;;;;;;;17.30;9.33;;;;;;;2.83;79.10;96623.62;1709330;84;20949;-74
2021/12/02 01:04:36;;;;;;;21.45;10.10;;;;;;;2.85;79.22;96633.16;1709171;84;21037;-74
2021/12/02 01:07:05;;;;;;;17.30;9.93;;;;;;;2.87;79.07;96626.59;1709200;84;20997;-74
2021/12/02 01:09:31;;;;;;;14.75;9.53;;;;;;;2.86;79.93;96632.26;1709136;84;21039;-74
2021/12/02 01:11:58;;;;;;;17.65;9.58;;;;;;;2.86;79.27;96632.72;1709136;84;21291;-73
2021/12/02 01:14:25;;;;;;;21.68;9.45;;;;;;;2.86;79.30;96625.72;1709112;84;20997;-74
2021/12/02 01:16:51;;;;;;;15.68;9.50;;;;;;;2.88;79.38;96621.33;1708758;84;21483;-74
2021/12/02 01:19:18;;;;;;;18.60;10.43;;;;;;;2.90;79.10;96629.12;1709302;84;20975;-74
2021/12/02 01:21:45;;;;;;;17.10;9.85;;;;;;;2.94;79.05;96622.09;1709348;84;20991;-74
2021/12/02 01:24:16;;;;;;;15.35;9.35;;;;;;;2.96;79.23;96613.31;1709121;84;21035;-74
2021/12/02 01:26:53;;;;;;;23.77;11.30;;;;;;;2.99;79.02;96600.61;1679075;84;21050;-73
2021/12/02 01:29:24;;;;;;;17.85;10.95;;;;;;;3.00;78.81;96594.47;1708707;84;21635;-74
2021/12/02 01:31:56;;;;;;;18.98;10.63;;;;;;;3.00;78.77;96595.78;1708682;84;21110;-74
2021/12/02 01:34:27;;;;;;;20.23;11.93;;;;;;;3.01;79.04;96609.27;1708834;84;21102;-74
2021/12/02 01:36:55;;;;;;;24.20;11.28;;;;;;;3.02;78.74;96613.17;1708947;84;21019;-74
2021/12/02 01:39:24;;;;;;;19.37;11.50;;;;;;;3.07;78.71;96605.67;1708776;84;20969;-74
2021/12/02 01:41:58;;;;;;;20.57;10.85;;;;;;;3.10;79.09;96606.89;1708788;84;21442;-75
2021/12/02 01:44:27;;;;;;;19.77;10.58;;;;;;;3.15;78.93;96598.05;1708847;84;20989;-75
2021/12/02 01:46:58;;;;;;;17.25;9.58;;;;;;;3.20;79.05;96600.55;1708469;84;20988;-74
2021/12/02 01:49:32;;;;;;;18.52;10.68;;;;;;;3.23;78.99;96605.73;1682454;84;21049;-74
2021/12/02 01:52:01;;;;;;;19.62;9.98;;;;;;;3.28;79.12;96603.86;1691528;85;21040;-74
2021/12/02 01:54:28;;;;;;;20.40;10.18;;;;;;;3.34;79.20;96601.56;1681894;85;21131;-74
2021/12/02 01:57:05;;;;;;;16.85;9.28;;;;;;;3.37;79.22;96603.25;1681701;85;21057;-74
2021/12/02 01:59:36;;;;;;;18.37;9.33;;;;;;;3.40;79.28;96595.30;1681618;84;21039;-74
2021/12/02 02:02:09;;;;;;;19.23;9.53;;;;;;;3.42;79.28;96588.29;1681681;85;21125;-74
2021/12/02 02:04:37;;;;;;;13.55;9.10;;;;;;;3.45;79.51;96582.11;1681684;85;21016;-74
2021/12/02 02:07:13;;;;;;;14.38;8.28;;;;;;;3.50;79.40;96590.72;1681480;85;21025;-74
2021/12/02 02:09:41;;;;;;;17.27;8.25;;;;;;;3.50;79.29;96590.28;1691527;85;20969;-74
2021/12/02 02:12:11;;;;;;;14.87;9.45;;;;;;;3.47;79.00;96574.62;1681700;85;21064;-75
2021/12/02 02:14:40;;;;;;;18.57;9.40;;;;;;;3.45;78.73;96555.48;1681515;85;21477;-74
2021/12/02 02:17:15;;;;;;;18.42;9.80;;;;;;;3.43;78.72;96569.05;1681708;85;21029;-74
2021/12/02 02:19:36;;;;;;;19.37;9.63;;;;;;;3.41;78.77;96566.46;1680771;85;21498;-74
2021/12/02 02:22:05;;;;;;;16.37;9.63;;;;;;;3.38;78.68;96566.99;1681251;85;21068;-74
2021/12/02 02:24:31;;;;;;;16.17;9.70;;;;;;;3.34;78.64;96567.95;1681614;85;21031;-74
2021/12/02 02:26:58;;;;;;;17.73;9.50;;;;;;;3.32;78.62;96556.67;1691395;84;21434;-74
2021/12/02 02:29:24;;;;;;;17.17;9.18;;;;;;;3.27;78.57;96558.07;1680738;85;21001;-74
2021/12/02 02:31:51;;;;;;;21.75;10.00;;;;;;;3.22;78.55;96554.27;1681577;85;21006;-74
2021/12/02 02:34:23;;;;;;;17.30;9.50;;;;;;;3.22;78.54;96550.77;1681730;85;21037;-74
2021/12/02 02:36:55;;;;;;;16.35;9.70;;;;;;;3.20;78.60;96547.34;1681937;84;20995;-74
2021/12/02 02:39:19;;;;;;;17.85;9.53;;;;;;;3.19;78.64;96556.95;1681269;85;20983;-74
2021/12/02 02:41:53;;;;;;;23.18;10.45;;;;;;;3.17;78.53;96545.66;1681547;85;21033;-74
2021/12/02 02:44:15;;;;;;;18.27;10.35;;;;;;;3.13;78.36;96542.27;1681841;85;21049;-74
2021/12/02 02:46:42;;;;;;;23.83;12.18;;;;;;;3.11;78.84;96543.20;1681769;85;21487;-74
2021/12/02 02:49:12;;;;;;;23.52;11.10;;;;;;;3.11;78.71;96534.03;1696834;84;21036;-74
2021/12/02 02:51:41;;;;;;;20.43;11.35;;;;;;;3.07;78.67;96538.45;1709270;84;21019;-74
2021/12/02 02:54:11;;;;;;;18.85;10.60;;;;;;;3.05;79.10;96541.57;1709228;84;21019;-74
2021/12/02 02:56:50;;;;;;;18.40;11.38;;;;;;;3.02;78.88;96543.81;1709016;84;21035;-74
2021/12/02 02:59:27;;;;;;;21.02;11.75;;;;;;;3.00;78.99;96533.80;1708827;83;21023;-74
2021/12/02 03:02:02;;;;;;;19.90;12.33;;;;;;;2.98;79.01;96534.73;1708695;84;20979;-74
2021/12/02 03:12:06;;;;;;;21.85;13.13;;;;;;;2.93;79.01;96538.78;1709171;84;21043;-74
2021/12/02 03:14:34;;;;;;;24.75;13.05;;;;;;;2.91;79.02;96537.97;1707838;84;21063;-74
2021/12/02 03:16:56;;;;;;;22.25;13.45;;;;;;;2.90;79.12;96537.53;1708273;82;20992;-74
2021/12/02 03:19:27;;;;;;;24.40;13.05;;;;;;;2.90;79.18;96541.45;1709153;84;21000;-74
2021/12/02 03:21:56;;;;;;;22.55;13.03;;;;;;;2.88;79.22;96536.72;1673546;85;21019;-74
2021/12/02 03:24:23;;;;;;;22.82;12.00;;;;;;;2.91;79.19;96531.42;1680637;85;21066;-74
2021/12/02 03:26:50;;;;;;;18.95;10.82;;;;;;;2.92;79.07;96524.42;1680576;85;21035;-74
2021/12/02 03:29:17;;;;;;;21.85;11.95;;;;;;;2.92;79.03;96523.11;1680545;85;20999;-74
2021/12/02 03:31:46;;;;;;;20.65;11.08;;;;;;;2.93;78.88;96516.53;1675057;84;21075;-74
2021/12/02 03:34:13;;;;;;;18.67;11.33;;;;;;;2.94;79.05;96510.87;1709016;84;21069;-74
2021/12/02 03:36:40;;;;;;;20.32;12.13;;;;;;;2.93;79.13;96507.38;1709031;84;20952;-74
2021/12/02 03:39:10;;;;;;;21.50;12.60;;;;;;;2.92;79.24;96508.28;1707736;84;21056;-73
2021/12/02 03:41:39;;;;;;;23.98;12.85;;;;;;;2.86;79.14;96504.04;1707540;84;21106;-74
2021/12/02 03:44:07;;;;;;;20.43;12.88;;;;;;;2.82;79.50;96511.54;1707697;84;21050;-74
2021/12/02 03:46:35;;;;;;;20.82;12.53;;;;;;;2.78;79.66;96500.72;1708734;82;21019;-73
2021/12/02 03:49:04;;;;;;;24.70;12.88;;;;;;;2.75;79.52;96501.66;1678550;84;32511;-74
2021/12/02 03:51:31;;;;;;;22.20;12.58;;;;;;;2.74;80.07;96505.64;1708962;84;21089;-73
2021/12/02 03:53:58;;;;;;;26.05;13.30;;;;;;;2.73;79.71;96510.44;1678964;84;21030;-74
2021/12/02 03:56:27;;;;;;;25.77;13.35;;;;;;;2.71;79.66;96496.54;1709003;84;20999;-74
2021/12/02 03:58:54;;;;;;;23.95;12.05;;;;;;;2.71;79.61;96496.54;1708964;84;21468;-74
2021/12/02 04:01:22;;;;;;;21.30;11.43;;;;;;;2.70;79.52;96497.44;1709182;84;20980;-74
2021/12/02 04:03:50;;;;;;;22.90;12.73;;;;;;;2.66;79.93;96497.09;1708772;84;21515;-74
2021/12/02 04:06:18;;;;;;;22.67;14.35;;;;;;;2.62;79.80;96499.77;1707325;84;21437;-74
2021/12/02 04:08:49;;;;;;;21.45;14.65;;;;;;;2.59;79.67;96499.85;1707296;84;21051;-74
2021/12/02 04:11:42;;;;;;;25.17;14.43;;;;;;;2.57;79.67;96500.31;1707365;84;21012;-74
2021/12/02 04:16:35;;;;;;;20.88;12.85;;;;;;;2.50;80.86;96492.20;1707591;84;21047;-73
2021/12/02 04:19:04;;;;;;;17.85;11.60;;;;;;;2.55;81.23;96496.02;1709040;84;21106;-74
2021/12/02 04:21:31;;;;;;;21.55;12.28;;;;;;;2.61;80.94;96490.64;1708830;84;21019;-74
2021/12/02 04:23:58;;;;;;;20.57;12.18;;;;;;;2.68;80.88;96483.08;1709024;84;21425;-74
2021/12/02 04:26:25;;;;;;;23.50;12.23;;;;;;;2.75;81.07;96479.42;1709136;84;21243;-74
2021/12/02 04:28:53;;;;;;;24.37;13.30;;;;;;;2.80;80.90;96491.54;1709054;84;21117;-74
2021/12/02 04:31:20;;;;;;;21.82;12.28;;;;;;;2.87;81.32;96480.05;1708980;84;21051;-74
2021/12/02 04:33:47;;;;;;;24.30;13.55;;;;;;;2.97;81.49;96486.78;1708929;84;21055;-74
2021/12/02 04:36:13;;;;;;;17.70;10.82;;;;;;;3.02;81.25;96478.38;1709219;84;21027;-74
2021/12/02 04:38:39;;;;;;;19.20;11.85;;;;;;;3.06;81.25;96486.16;1709330;84;21051;-74
2021/12/02 04:41:06;;;;;;;21.42;12.03;;;;;;;3.06;81.18;96477.84;1708963;84;21532;-73
2021/12/02 04:43:33;;;;;;;20.05;12.55;;;;;;;3.07;80.98;96491.34;1709222;84;21023;-74
2021/12/02 04:45:59;;;;;;;23.07;11.88;;;;;;;3.08;81.08;96490.91;1709171;84;21004;-74
2021/12/02 04:48:26;;;;;;;20.00;12.15;;;;;;;3.11;80.86;96490.38;1703442;83;21438;-74
2021/12/02 04:50:53;;;;;;;19.90;11.35;;;;;;;3.12;80.88;96483.39;1681657;85;21028;-74
2021/12/02 04:53:20;;;;;;;18.35;11.73;;;;;;;3.08;80.60;96480.00;1681885;85;21024;-74
2021/12/02 04:55:46;;;;;;;15.60;10.43;;;;;;;3.06;80.54;96481.77;1681455;84;21021;-75
2021/12/02 04:58:13;;;;;;;20.30;11.22;;;;;;;3.05;80.75;96489.22;1681644;85;21011;-74
2021/12/02 05:00:39;;;;;;;19.15;11.22;;;;;;;3.05;80.59;96478.75;1681322;83;21473;-74
2021/12/02 05:03:06;;;;;;;21.75;11.48;;;;;;;3.07;80.54;96486.57;1681797;85;21380;-74
2021/12/02 05:05:33;;;;;;;20.30;11.68;;;;;;;3.05;80.50;96490.53;1681934;85;21020;-74
2021/12/02 05:08:03;;;;;;;21.15;11.10;;;;;;;3.03;80.25;96484.02;1681950;85;20989;-74
2021/12/02 05:10:30;;;;;;;19.35;11.68;;;;;;;3.01;80.50;96484.52;1693146;83;21433;-74
2021/12/02 05:12:58;;;;;;;18.82;11.33;;;;;;;3.00;80.42;96472.30;1725804;83;21406;-74
2021/12/02 05:15:25;;;;;;;19.23;12.33;;;;;;;3.01;80.33;96476.66;1720699;83;21015;-74
2021/12/02 05:17:51;;;;;;;22.48;11.08;;;;;;;3.00;80.36;96474.92;1681567;85;21083;-74
2021/12/02 05:20:18;;;;;;;20.35;11.28;;;;;;;3.00;80.35;96480.62;1681787;83;21007;-74
2021/12/02 05:22:46;;;;;;;19.80;10.72;;;;;;;2.99;81.12;96480.22;1678767;85;21044;-74
2021/12/02 05:25:13;;;;;;;20.25;11.43;;;;;;;3.00;80.57;96474.08;1678590;85;21076;-74
2021/12/02 05:27:42;;;;;;;20.30;12.05;;;;;;;2.99;81.62;96478.44;1681913;84;21052;-74
2021/12/02 05:30:10;;;;;;;19.42;12.28;;;;;;;3.02;81.21;96477.06;1681228;85;20986;-75
2021/12/02 05:32:38;;;;;;;21.33;12.82;;;;;;;3.06;81.05;96487.48;1691483;85;21048;-74
2021/12/02 05:35:06;;;;;;;25.25;12.45;;;;;;;3.08;80.85;96489.59;1691512;85;20986;-74
2021/12/02 05:37:33;;;;;;;30.25;13.80;;;;;;;3.11;81.09;96486.91;1680470;85;21476;-74
2021/12/02 05:39:59;;;;;;;19.48;12.90;;;;;;;3.13;80.92;96479.87;1691599;85;21016;-74
2021/12/02 05:42:26;;;;;;;23.73;12.90;;;;;;;3.15;81.29;96481.55;1691399;83;20996;-74
2021/12/02 05:44:53;;;;;;;26.75;12.73;;;;;;;3.16;81.06;96481.95;1681835;85;21477;-74
2021/12/02 05:47:20;;;;;;;19.23;12.28;;;;;;;3.18;81.12;96474.07;1691329;85;21012;-74
2021/12/02 05:49:47;;;;;;;21.45;12.50;;;;;;;3.20;81.34;96472.27;1689771;85;21043;-74
2021/12/02 05:52:14;;;;;;;28.38;13.35;;;;;;;3.23;81.67;96470.02;1688308;83;21045;-73
2021/12/02 05:54:40;;;;;;;20.12;12.37;;;;;;;3.28;81.29;96469.02;1688726;83;21513;-74
2021/12/02 05:57:07;;;;;;;14.30;7.53;;;;;;;3.37;81.09;96469.69;1688881;85;21469;-74
2021/12/02 05:59:33;;;;;;;9.68;5.35;;;;;;;3.49;80.29;96460.66;1688847;85;20967;-75
2021/12/02 06:02:00;;;;;;;6.87;4.20;;;;;;;3.68;80.18;96455.78;1637275;85;21041;-74
2021/12/02 06:04:26;;;;;;;6.03;3.52;;;;;;;3.89;78.75;96455.65;1691462;85;21066;-75
2021/12/02 06:06:53;;;;;;;25.35;11.57;;;;;;;4.10;77.77;96453.32;1636937;87;21530;-75
2021/12/02 06:09:20;;;;;;;5.10;3.17;;;;;;;4.24;78.05;96447.70;1643511;87;21481;-74
2021/12/02 06:11:47;;;;;;;5.62;3.25;;;;;;;4.35;77.50;96449.54;1689227;85;20970;-84
2021/12/02 06:14:14;;;;;;;4.95;1.87;;;;;;;4.47;77.64;96439.13;1637529;87;21052;-84
2021/12/02 06:16:42;;;;;;;4.95;2.45;;;;;;;4.56;76.65;96440.61;1691924;85;21067;-84
2021/12/02 06:19:10;;;;;;;3.45;2.55;;;;;;;4.68;75.15;96437.19;1691297;85;21004;-84
2021/12/02 06:21:37;;;;;;;5.10;3.27;;;;;;;4.77;76.47;96428.19;1691103;85;21024;-83
2021/12/02 06:24:06;;;;;;;6.87;3.90;;;;;;;4.79;76.60;96435.55;1691331;84;21497;-82
2021/12/02 06:26:33;;;;;;;5.35;3.00;;;;;;;4.83;76.64;96438.48;1691371;85;21449;-85
2021/12/02 06:29:00;;;;;;;5.78;2.80;;;;;;;4.84;76.61;96442.38;1690194;85;21033;-81
2021/12/02 06:31:28;;;;;;;3.55;2.27;;;;;;;4.85;75.78;96450.66;1691194;85;20962;-83
2021/12/02 06:33:54;;;;;;;4.85;2.83;;;;;;;4.94;75.33;96442.09;1689684;85;21020;-82
2021/12/02 06:36:21;;;;;;;4.22;2.85;;;;;;;5.00;75.96;96439.27;1689042;84;21056;-83
2021/12/02 06:38:47;;;;;;;6.30;2.27;;;;;;;5.01;76.07;96444.47;1689544;85;21517;-86
2021/12/02 06:41:15;;;;;;;3.80;2.27;;;;;;;5.02;75.96;96446.62;1636287;87;21012;-84
2021/12/02 06:43:42;;;;;;;2.62;1.80;;;;;;;5.04;76.15;96434.31;1647155;86;21038;-82
2021/12/02 06:46:08;;;;;;;3.30;2.58;;;;;;;5.06;76.03;96442.99;1649562;87;21476;-84
2021/12/02 06:48:35;;;;;;;5.12;2.33;;;;;;;5.10;75.42;96445.05;1646582;86;21058;-87
2021/12/02 06:51:02;;;;;;;4.28;2.35;;;;;;;5.19;73.92;96442.13;1647783;85;21055;-88
2021/12/02 06:53:28;;;;;;;2.83;2.00;;;;;;;5.28;74.50;96443.61;1647221;86;21059;-87
2021/12/02 06:55:55;;;;;;;2.08;1.45;;;;;;;5.35;73.84;96449.05;1645420;85;21056;-87
2021/12/02 06:58:21;;;;;;;3.12;1.82;;;;;;;5.43;72.53;96451.41;1649058;86;21071;-86
2021/12/02 07:00:48;;;;;;;5.80;2.22;;;;;;;5.52;72.74;96447.16;1647591;86;21047;-84
2021/12/02 07:03:14;;;;;;;7.05;3.30;;;;;;;5.59;72.78;96461.39;1650561;86;21076;-83
2021/12/02 07:05:41;;;;;;;2.45;1.70;;;;;;;5.67;72.67;96461.55;1639158;87;20997;-81
2021/12/02 07:08:07;;;;;;;4.97;1.60;;;;;;;5.74;71.70;96453.45;1646565;85;21463;-84
2021/12/02 07:10:34;;;;;;;4.05;1.87;;;;;;;5.79;71.16;96465.53;1655408;87;21026;-86
2021/12/02 07:13:00;;;;;;;3.67;2.08;;;;;;;5.86;70.99;96466.14;1652475;86;21009;-78
2021/12/02 07:15:31;;;;;;;4.55;2.27;;;;;;;5.94;70.60;96465.91;1641540;86;21089;-78
2021/12/02 07:18:00;;;;;;;3.27;2.05;;;;;;;6.00;71.04;96468.30;1652602;87;21049;-79
2021/12/02 07:20:30;;;;;;;2.95;1.82;;;;;;;6.04;71.23;96458.11;1653850;87;21566;-78
2021/12/02 07:22:58;;;;;;;2.62;2.00;;;;;;;6.09;70.09;96456.61;1648503;87;21028;-79
2021/12/02 07:25:26;;;;;;;2.72;2.12;;;;;;;6.16;70.37;96454.63;1641354;87;21052;-78
2021/12/02 07:27:52;;;;;;;4.83;2.40;;;;;;;6.18;69.94;96459.36;1641291;87;21068;-78
2021/12/02 07:30:19;;;;;;;5.58;2.55;;;;;;;6.21;69.87;96455.31;1651186;87;20994;-79
2021/12/02 07:32:56;;;;;;;4.40;3.02;;;;;;;6.22;70.12;96450.44;1657842;84;21045;-79
2021/12/02 07:35:24;;;;;;;3.92;2.55;;;;;;;6.23;69.92;96450.00;1688942;83;21025;-80
2021/12/02 07:38:00;;;;;;;4.12;2.77;;;;;;;6.24;69.68;96455.20;1684093;84;21039;-82
2021/12/02 07:40:30;;;;;;;5.35;3.00;;;;;;;6.28;69.60;96459.89;1672254;85;21003;-82
2021/12/02 07:42:58;;;;;;;5.40;3.60;;;;;;;6.30;69.35;96458.05;1671689;86;21023;-82
2021/12/02 07:45:35;;;;;;;5.83;3.30;;;;;;;6.34;69.54;96458.34;1666901;86;21044;-82
2021/12/02 07:48:08;;;;;;;4.10;2.65;;;;;;;6.37;69.51;96462.63;1676874;85;21032;-82
2021/12/02 07:50:38;;;;;;;2.77;1.82;;;;;;;6.41;69.56;96453.26;1661867;85;21116;-84
2021/12/02 07:53:08;;;;;;;3.98;1.52;;;;;;;6.46;69.19;96447.36;1688756;85;21095;-82
2021/12/02 07:55:39;;;;;;;5.25;2.35;;;;;;;6.53;69.08;96449.75;1688677;84;21084;-82
2021/12/02 07:58:08;;;;;;;2.27;1.70;;;;;;;6.58;69.41;96452.62;1683233;85;20976;-81
2021/12/02 08:00:37;;;;;;;2.55;1.20;;;;;;;6.64;68.38;96446.23;1687213;85;20961;-83
2021/12/02 08:03:07;;;;;;;1.75;1.40;;;;;;;6.71;68.38;96440.28;1689903;84;21052;-81
2021/12/02 08:05:34;;;;;;;2.00;1.40;;;;;;;6.74;68.09;96444.95;1687466;85;21394;-81
2021/12/02 08:08:01;;;;;;;5.87;1.52;;;;;;;6.80;68.15;96441.68;1688770;85;21358;-80
2021/12/02 08:10:29;;;;;;;1.90;1.37;;;;;;;6.83;67.76;96449.03;1688701;85;20964;-80
2021/12/02 08:12:57;;;;;;;2.87;1.40;;;;;;;6.86;67.72;96452.83;1680420;85;20997;-79
2021/12/02 08:15:27;;;;;;;3.05;1.82;;;;;;;6.90;67.83;96462.81;1689535;84;21055;-80
2021/12/02 08:17:55;;;;;;;1.60;1.20;;;;;;;6.94;67.53;96459.11;1685260;85;21047;-79
2021/12/02 08:20:24;;;;;;;1.75;1.12;;;;;;;7.00;67.05;96460.66;1666622;84;20999;-79
2021/12/02 08:22:52;;;;;;;2.77;1.70;;;;;;;7.05;66.96;96454.73;1684181;85;21048;-81
2021/12/02 08:25:21;;;;;;;2.52;1.27;;;;;;;7.09;66.95;96469.95;1687679;85;21001;-80
2021/12/02 08:27:49;;;;;;;2.30;1.22;;;;;;;7.13;67.03;96468.47;1688766;85;21011;-80
2021/12/02 08:30:19;;;;;;;2.15;1.30;;;;;;;7.18;67.60;96468.75;1688921;85;21013;-80
2021/12/02 08:32:46;;;;;;;2.55;1.50;;;;;;;7.24;67.81;96460.59;1688132;85;21068;-80
2021/12/02 08:35:14;;;;;;;4.53;1.60;;;;;;;7.31;66.87;96465.14;1676647;85;21641;-80
2021/12/02 08:37:45;;;;;;;4.20;2.05;;;;;;;7.32;66.92;96456.31;1685293;85;21054;-80
2021/12/02 08:40:15;;;;;;;2.10;1.47;;;;;;;7.35;67.43;96450.45;1671903;84;21544;-81
2021/12/02 08:42:43;;;;;;;2.90;1.72;;;;;;;7.39;66.70;96455.99;1670721;85;21007;-80
2021/12/02 08:45:10;;;;;;;2.77;1.65;;;;;;;7.40;66.46;96448.47;1687256;85;20996;-80
2021/12/02 08:47:43;;;;;;;3.20;1.90;;;;;;;7.45;66.25;96446.11;1688524;85;21097;-82
2021/12/02 08:50:06;;;;;;;2.22;1.80;;;;;;;7.50;66.51;96452.05;1695623;84;21051;-80
2021/12/02 08:52:32;;;;;;;4.45;1.87;;;;;;;7.56;66.99;96453.09;1709356;84;21023;-79
2021/12/02 08:54:58;;;;;;;3.17;1.45;;;;;;;7.62;66.51;96458.58;1712957;83;20996;-79
2021/12/02 08:57:25;;;;;;;6.60;1.70;;;;;;;7.66;65.97;96454.89;1710609;83;20983;-80
2021/12/02 08:59:52;;;;;;;2.85;1.92;;;;;;;7.70;65.94;96467.03;1692584;83;21051;-81
2021/12/02 09:02:18;;;;;;;3.20;1.80;;;;;;;7.76;66.41;96464.57;1709495;84;21040;-81
2021/12/02 09:04:45;;;;;;;5.67;2.70;;;;;;;7.81;65.39;96460.44;1709444;84;21062;-82
2021/12/02 09:07:11;;;;;;;6.70;2.92;;;;;;;7.85;66.16;96452.79;1709597;84;21462;-82
2021/12/02 09:09:38;;;;;;;4.10;2.50;;;;;;;7.90;66.88;96447.69;1709401;84;21066;-79
2021/12/02 09:12:05;;;;;;;5.67;2.37;;;;;;;7.94;67.12;96443.16;1709495;84;20948;-81
2021/12/02 09:14:32;;;;;;;5.10;2.37;;;;;;;8.00;67.01;96432.77;1709405;84;21040;-80
2021/12/02 09:16:58;;;;;;;4.58;2.50;;;;;;;8.05;67.45;96434.30;1709344;84;21421;-79
2021/12/02 09:19:25;;;;;;;14.38;3.58;;;;;;;8.10;66.60;96431.91;1709288;84;21015;-79
2021/12/02 09:21:51;;;;;;;9.80;5.03;;;;;;;8.14;67.21;96431.70;1709225;84;21079;-79
2021/12/02 09:24:18;;;;;;;6.55;3.83;;;;;;;8.19;66.53;96415.19;1709296;84;21431;-79
2021/12/02 09:26:47;;;;;;;9.40;4.10;;;;;;;8.25;66.45;96413.19;1709284;84;21034;-79
2021/12/02 09:29:17;;;;;;;5.50;3.40;;;;;;;8.29;67.17;96416.95;1709356;84;21034;-80
2021/12/02 09:31:45;;;;;;;5.28;3.17;;;;;;;8.31;67.06;96405.86;1709297;84;21059;-79
2021/12/02 09:34:13;;;;;;;8.43;3.37;;;;;;;8.39;66.63;96414.73;1709398;84;21039;-79
2021/12/02 09:36:40;;;;;;;5.97;3.58;;;;;;;8.45;66.42;96410.97;1709221;84;21019;-80
2021/12/02 09:39:09;;;;;;;6.10;3.87;;;;;;;8.51;66.24;96409.35;1709376;84;21051;-79
2021/12/02 09:41:37;;;;;;;8.20;3.75;;;;;;;8.63;66.90;96404.47;1709293;84;21332;-80
2021/12/02 09:44:04;;;;;;;13.00;5.90;;;;;;;8.75;66.92;96401.72;1709393;84;21106;-79
2021/12/02 09:46:33;;;;;;;11.03;5.35;;;;;;;8.87;66.12;96393.63;1709460;84;21448;-79
2021/12/02 09:49:03;;;;;;;10.98;5.75;;;;;;;8.98;66.53;96404.07;1709371;84;21035;-79
2021/12/02 09:52:35;;;;;;;10.43;5.00;;;;;;;9.12;66.04;96399.90;1673842;84;21043;-79
2021/12/02 09:54:17;;;;;;;12.55;4.62;;;;;;;9.24;65.30;96401.08;1665454;86;21008;-79
2021/12/02 09:56:45;;;;;;;7.35;4.53;;;;;;;9.36;65.17;96393.87;1676697;85;21791;-79
2021/12/02 09:59:34;;;;;;;11.40;4.92;;;;;;;9.44;64.52;96387.32;1676505;84;21039;-79
2021/12/02 10:02:02;;;;;;;11.03;5.62;;;;;;;9.51;63.28;96382.95;1664798;83;20996;-79
2021/12/02 10:04:29;;;;;;;5.40;2.70;;;;;;;9.63;63.70;96387.22;1664788;86;21040;-79
2021/12/02 10:07:22;;;;;;;7.42;4.40;;;;;;;9.76;63.42;96379.04;1665780;85;21071;-79
2021/12/02 10:10:05;;;;;;;6.67;3.75;;;;;;;9.85;62.56;96380.82;1680980;84;21033;-80
2021/12/02 10:12:29;;;;;;;9.18;4.67;;;;;;;9.84;62.33;96380.44;1680860;83;21005;-79
2021/12/02 10:14:59;;;;;;;8.43;4.45;;;;;;;9.92;63.64;96371.61;1671390;85;21067;-79
2021/12/02 10:17:34;;;;;;;6.50;3.65;;;;;;;10.03;62.71;96381.63;1665093;86;21100;-81
2021/12/02 10:23:17;;;;;;;4.92;3.25;;;;;;;10.06;61.15;96366.05;1670274;85;22099;-80
2021/12/02 10:25:42;;;;;;;8.85;4.35;;;;;;;10.12;62.54;96365.72;1669252;85;21434;-80
2021/12/02 10:28:13;;;;;;;7.33;3.70;;;;;;;10.12;62.63;96362.61;1681612;85;21013;-80
2021/12/02 10:30:48;;;;;;;9.05;3.47;;;;;;;10.15;61.91;96349.67;1681493;84;21021;-80
2021/12/02 10:33:35;;;;;;;7.97;3.42;;;;;;;10.16;62.47;96364.16;1681570;85;21028;-79
2021/12/02 10:36:07;;;;;;;6.35;3.02;;;;;;;10.21;62.68;96359.09;1674524;83;21016;-80
2021/12/02 10:38:43;;;;;;;5.85;3.37;;;;;;;10.21;62.76;96355.95;1677138;85;20974;-79
2021/12/02 10:41:21;;;;;;;6.80;3.50;;;;;;;10.22;61.99;96349.71;1681617;85;20986;-80
2021/12/02 10:44:11;;;;;;;13.32;3.77;;;;;;;10.24;62.24;96331.09;1664586;86;21453;-80
2021/12/02 10:47:03;;;;;;;4.40;3.10;;;;;;;10.22;61.91;96339.61;1664686;86;21036;-81
2021/12/02 10:49:41;;;;;;;5.95;3.37;;;;;;;10.17;62.47;96336.73;1665211;85;21000;-81
2021/12/02 10:52:18;;;;;;;8.10;3.47;;;;;;;10.14;60.75;96338.22;1662135;85;21007;-81
2021/12/02 10:54:51;;;;;;;7.03;3.50;;;;;;;10.17;61.74;96338.06;1697300;83;21041;-81
2021/12/02 10:57:22;;;;;;;6.03;3.72;;;;;;;10.15;60.93;96334.66;1708068;84;21068;-81
2021/12/02 10:59:53;;;;;;;6.33;3.10;;;;;;;10.16;61.18;96332.84;1650862;86;21425;-79
2021/12/02 11:02:28;;;;;;;4.87;3.33;;;;;;;10.18;60.56;96324.38;1638628;86;21005;-79
2021/12/02 11:05:01;;;;;;;9.48;4.42;;;;;;;10.22;60.81;96326.38;1629518;86;21035;-79
2021/12/02 11:07:34;;;;;;;15.10;5.65;;;;;;;10.22;60.17;96323.73;1644092;86;21023;-80
2021/12/02 11:10:09;;;;;;;8.90;4.58;;;;;;;10.21;60.65;96318.05;1647023;85;21056;-80
2021/12/02 11:12:43;;;;;;;6.97;4.03;;;;;;;10.23;60.54;96320.13;1646406;86;21071;-80
2021/12/02 11:15:24;;;;;;;8.10;4.50;;;;;;;10.27;61.25;96316.38;1648540;86;21053;-79
2021/12/02 11:17:57;;;;;;;9.08;4.50;;;;;;;10.32;59.74;96319.63;1635873;88;21003;-80
2021/12/02 11:20:31;;;;;;;5.92;3.90;;;;;;;10.47;61.24;96320.61;1636913;87;21051;-80
2021/12/02 11:23:07;;;;;;;9.60;4.50;;;;;;;10.60;60.96;96320.77;1636810;87;21012;-80
2021/12/02 11:25:38;;;;;;;7.92;4.45;;;;;;;10.70;59.23;96319.75;1638524;86;21036;-80
2021/12/02 11:28:08;;;;;;;8.60;5.50;;;;;;;10.87;60.39;96310.00;1656333;86;21073;-80
2021/12/02 11:30:37;;;;;;;7.40;5.33;;;;;;;11.48;60.28;96305.51;1664454;86;21027;-80
2021/12/02 11:33:06;;;;;;;9.78;4.97;;;;;;;12.49;57.45;96301.55;1662278;84;21012;-81
2021/12/02 11:35:43;;;;;;;9.73;6.20;;;;;;;13.42;56.87;96294.08;1662823;86;21127;-80
2021/12/02 11:38:17;;;;;;;9.53;5.67;;;;;;;14.11;54.47;96273.41;1663233;85;21066;-80
2021/12/02 11:40:50;;;;;;;7.70;3.60;;;;;;;14.46;53.65;96274.02;1649568;86;21560;-79
2021/12/02 11:43:20;;;;;;;;;;;;;;;14.61;52.76;96269.36;1676268;86;21111;-80
2021/12/02 11:45:49;;;;;;;16.42;5.70;;;;;;;14.90;48.69;96273.52;1705413;84;20118;-79
2021/12/02 11:48:24;;;;;;;13.43;5.40;;;;;;;15.76;45.82;96271.05;1692493;84;20988;-79
2021/12/02 11:50:55;;;;;;;11.70;6.05;;;;;;;16.65;48.39;96266.23;1667237;85;21038;-79
2021/12/02 11:53:23;;;;;;;11.22;5.00;;;;;;;16.19;45.58;96269.01;1658048;84;21015;-79
2021/12/02 11:56:00;;;;;;;14.30;5.20;;;;;;;15.69;43.86;96266.20;1645285;85;21029;-79
2021/12/02 11:58:27;;;;;;;8.55;4.65;;;;;;;14.99;46.69;96263.98;1643086;86;21086;-79
2021/12/02 12:00:55;;;;;;;7.17;4.22;;;;;;;14.51;48.87;96264.34;1644798;86;21039;-80